sensor_id;sensor_type;location;lat;lon;timestamp;temperature;humidity
53802;DHT22;39709;53.334;6.534;2023-09-19T00:00:17;13.20;99.90
53802;DHT22;39709;53.334;6.534;2023-09-19T00:02:45;13.10;99.90
53802;DHT22;39709;53.334;6.534;2023-09-19T00:05:12;13.20;99.90
53802;DHT22;39709;53.334;6.534;2023-09-19T00:07:39;13.10;99.90
53802;DHT22;39709;53.334;6.534;2023-09-19T00:10:06;13.00;99.90
53802;DHT22;39709;53.334;6.534;2023-09-19T00:12:34;13.00;99.90
53802;DHT22;39709;53.334;6.534;2023-09-19T00:14:59;13.00;99.90
53802;DHT22;39709;53.334;6.534;2023-09-19T00:17:26;12.90;99.90
53802;DHT22;39709;53.334;6.534;2023-09-19T00:19:52;13.00;99.90
53802;DHT22;39709;53.334;6.534;2023-09-19T00:22:17;12.90;99.90
53802;DHT22;39709;53.334;6.534;2023-09-19T00:24:44;13.00;99.90
53802;DHT22;39709;53.334;6.534;2023-09-19T00:27:09;12.90;99.90
53802;DHT22;39709;53.334;6.534;2023-09-19T00:29:35;12.80;99.90
53802;DHT22;39709;53.334;6.534;2023-09-19T00:32:01;13.00;99.90
53802;DHT22;39709;53.334;6.534;2023-09-19T00:34:28;12.90;99.90
53802;DHT22;39709;53.334;6.534;2023-09-19T00:36:56;13.10;99.90
53802;DHT22;39709;53.334;6.534;2023-09-19T00:39:21;13.10;99.90
53802;DHT22;39709;53.334;6.534;2023-09-19T00:41:47;12.90;99.90
53802;DHT22;39709;53.334;6.534;2023-09-19T00:44:13;12.90;99.90
53802;DHT22;39709;53.334;6.534;2023-09-19T00:46:39;13.10;99.90
53802;DHT22;39709;53.334;6.534;2023-09-19T00:49:04;12.90;99.90
53802;DHT22;39709;53.334;6.534;2023-09-19T00:51:32;12.90;99.90
53802;DHT22;39709;53.334;6.534;2023-09-19T00:54:01;13.00;99.90
53802;DHT22;39709;53.334;6.534;2023-09-19T00:56:27;13.00;99.90
53802;DHT22;39709;53.334;6.534;2023-09-19T00:58:53;13.10;99.90
53802;DHT22;39709;53.334;6.534;2023-09-19T01:01:19;13.20;99.90
53802;DHT22;39709;53.334;6.534;2023-09-19T01:03:45;13.20;99.90
53802;DHT22;39709;53.334;6.534;2023-09-19T01:06:10;13.20;99.90
53802;DHT22;39709;53.334;6.534;2023-09-19T01:08:36;13.20;99.90
53802;DHT22;39709;53.334;6.534;2023-09-19T01:13:41;13.20;99.90
53802;DHT22;39709;53.334;6.534;2023-09-19T01:16:22;13.30;99.90
53802;DHT22;39709;53.334;6.534;2023-09-19T01:21:28;13.00;99.90
53802;DHT22;39709;53.334;6.534;2023-09-19T01:26:30;13.20;99.90
53802;DHT22;39709;53.334;6.534;2023-09-19T01:29:01;13.00;99.90
53802;DHT22;39709;53.334;6.534;2023-09-19T01:31:33;12.90;99.90
53802;DHT22;39709;53.334;6.534;2023-09-19T01:34:01;12.90;99.90
53802;DHT22;39709;53.334;6.534;2023-09-19T01:36:31;12.90;99.90
53802;DHT22;39709;53.334;6.534;2023-09-19T01:38:57;12.80;99.90
53802;DHT22;39709;53.334;6.534;2023-09-19T01:41:26;12.70;99.90
53802;DHT22;39709;53.334;6.534;2023-09-19T01:43:54;12.80;99.90
53802;DHT22;39709;53.334;6.534;2023-09-19T01:46:21;12.70;99.90
53802;DHT22;39709;53.334;6.534;2023-09-19T01:51:22;12.70;99.90
53802;DHT22;39709;53.334;6.534;2023-09-19T01:53:53;12.70;99.90
53802;DHT22;39709;53.334;6.534;2023-09-19T01:56:28;12.60;99.90
53802;DHT22;39709;53.334;6.534;2023-09-19T01:58:58;12.60;99.90
53802;DHT22;39709;53.334;6.534;2023-09-19T02:01:25;12.50;99.90
53802;DHT22;39709;53.334;6.534;2023-09-19T02:03:51;12.60;99.90
53802;DHT22;39709;53.334;6.534;2023-09-19T02:06:18;12.60;99.90
53802;DHT22;39709;53.334;6.534;2023-09-19T02:08:47;12.50;99.90
53802;DHT22;39709;53.334;6.534;2023-09-19T02:11:13;12.50;99.90
53802;DHT22;39709;53.334;6.534;2023-09-19T02:13:38;12.60;99.90
53802;DHT22;39709;53.334;6.534;2023-09-19T02:16:05;12.50;99.90
53802;DHT22;39709;53.334;6.534;2023-09-19T02:18:30;12.70;99.90
53802;DHT22;39709;53.334;6.534;2023-09-19T02:20:56;12.60;99.90
53802;DHT22;39709;53.334;6.534;2023-09-19T02:23:24;12.60;99.90
53802;DHT22;39709;53.334;6.534;2023-09-19T02:25:59;12.60;99.90
53802;DHT22;39709;53.334;6.534;2023-09-19T02:28:26;12.50;99.90
53802;DHT22;39709;53.334;6.534;2023-09-19T02:30:55;12.50;99.90
53802;DHT22;39709;53.334;6.534;2023-09-19T02:33:21;12.40;99.90
53802;DHT22;39709;53.334;6.534;2023-09-19T02:35:47;12.50;99.90
53802;DHT22;39709;53.334;6.534;2023-09-19T02:38:12;12.50;99.90
53802;DHT22;39709;53.334;6.534;2023-09-19T02:40:38;12.40;99.90
53802;DHT22;39709;53.334;6.534;2023-09-19T02:43:04;12.30;99.90
53802;DHT22;39709;53.334;6.534;2023-09-19T02:45:30;12.40;99.90
53802;DHT22;39709;53.334;6.534;2023-09-19T02:47:56;12.30;99.90
53802;DHT22;39709;53.334;6.534;2023-09-19T02:50:22;12.30;99.90
53802;DHT22;39709;53.334;6.534;2023-09-19T02:52:48;12.30;99.90
53802;DHT22;39709;53.334;6.534;2023-09-19T02:55:14;12.20;99.90
53802;DHT22;39709;53.334;6.534;2023-09-19T02:57:49;12.20;99.90
53802;DHT22;39709;53.334;6.534;2023-09-19T03:00:15;12.30;99.90
53802;DHT22;39709;53.334;6.534;2023-09-19T03:02:41;12.30;99.90
53802;DHT22;39709;53.334;6.534;2023-09-19T03:05:07;12.30;99.90
53802;DHT22;39709;53.334;6.534;2023-09-19T03:07:33;12.40;99.90
53802;DHT22;39709;53.334;6.534;2023-09-19T03:09:59;12.40;99.90
53802;DHT22;39709;53.334;6.534;2023-09-19T03:12:25;12.40;99.90
53802;DHT22;39709;53.334;6.534;2023-09-19T03:14:51;12.50;99.90
53802;DHT22;39709;53.334;6.534;2023-09-19T03:17:17;12.40;99.90
53802;DHT22;39709;53.334;6.534;2023-09-19T03:19:45;12.50;99.90
53802;DHT22;39709;53.334;6.534;2023-09-19T03:22:10;12.60;99.90
53802;DHT22;39709;53.334;6.534;2023-09-19T03:24:36;12.80;99.90
53802;DHT22;39709;53.334;6.534;2023-09-19T03:27:03;12.70;99.90
53802;DHT22;39709;53.334;6.534;2023-09-19T03:29:28;12.60;99.90
53802;DHT22;39709;53.334;6.534;2023-09-19T03:31:54;12.50;99.90
53802;DHT22;39709;53.334;6.534;2023-09-19T03:34:20;12.50;99.90
53802;DHT22;39709;53.334;6.534;2023-09-19T03:36:46;12.40;99.90
53802;DHT22;39709;53.334;6.534;2023-09-19T03:39:12;12.40;99.90
53802;DHT22;39709;53.334;6.534;2023-09-19T03:41:37;12.30;99.90
53802;DHT22;39709;53.334;6.534;2023-09-19T03:44:04;12.20;99.90
53802;DHT22;39709;53.334;6.534;2023-09-19T03:46:29;12.00;99.90
53802;DHT22;39709;53.334;6.534;2023-09-19T03:48:55;12.10;99.90
53802;DHT22;39709;53.334;6.534;2023-09-19T03:51:21;12.10;99.90
53802;DHT22;39709;53.334;6.534;2023-09-19T03:53:47;12.00;99.90
53802;DHT22;39709;53.334;6.534;2023-09-19T03:56:14;12.00;99.90
53802;DHT22;39709;53.334;6.534;2023-09-19T03:58:40;12.00;99.90
53802;DHT22;39709;53.334;6.534;2023-09-19T04:01:05;11.90;99.90
53802;DHT22;39709;53.334;6.534;2023-09-19T04:03:35;11.80;99.90
53802;DHT22;39709;53.334;6.534;2023-09-19T04:06:11;11.90;99.90
53802;DHT22;39709;53.334;6.534;2023-09-19T04:08:37;11.90;99.90
53802;DHT22;39709;53.334;6.534;2023-09-19T04:11:02;12.00;99.90
53802;DHT22;39709;53.334;6.534;2023-09-19T04:13:28;11.90;99.90
53802;DHT22;39709;53.334;6.534;2023-09-19T04:15:54;11.90;99.90
53802;DHT22;39709;53.334;6.534;2023-09-19T04:18:19;11.90;99.90
53802;DHT22;39709;53.334;6.534;2023-09-19T04:20:49;11.80;99.90
53802;DHT22;39709;53.334;6.534;2023-09-19T04:23:15;12.00;99.90
53802;DHT22;39709;53.334;6.534;2023-09-19T04:25:41;11.90;99.90
53802;DHT22;39709;53.334;6.534;2023-09-19T04:28:06;12.00;99.90
53802;DHT22;39709;53.334;6.534;2023-09-19T04:30:32;11.90;99.90
53802;DHT22;39709;53.334;6.534;2023-09-19T04:32:57;12.00;99.90
53802;DHT22;39709;53.334;6.534;2023-09-19T04:35:23;12.20;99.90
53802;DHT22;39709;53.334;6.534;2023-09-19T04:37:48;11.90;99.90
53802;DHT22;39709;53.334;6.534;2023-09-19T04:40:15;12.00;99.90
53802;DHT22;39709;53.334;6.534;2023-09-19T04:42:52;12.00;99.90
53802;DHT22;39709;53.334;6.534;2023-09-19T04:45:18;12.00;99.90
53802;DHT22;39709;53.334;6.534;2023-09-19T04:47:45;12.10;99.90
53802;DHT22;39709;53.334;6.534;2023-09-19T04:50:11;12.10;99.90
53802;DHT22;39709;53.334;6.534;2023-09-19T04:52:41;12.20;99.90
53802;DHT22;39709;53.334;6.534;2023-09-19T04:55:10;12.00;99.90
53802;DHT22;39709;53.334;6.534;2023-09-19T04:57:39;12.10;99.90
53802;DHT22;39709;53.334;6.534;2023-09-19T05:00:04;12.10;99.90
53802;DHT22;39709;53.334;6.534;2023-09-19T05:02:37;12.20;99.90
53802;DHT22;39709;53.334;6.534;2023-09-19T05:05:03;12.10;99.90
53802;DHT22;39709;53.334;6.534;2023-09-19T05:07:30;12.10;99.90
53802;DHT22;39709;53.334;6.534;2023-09-19T05:09:55;12.00;99.90
53802;DHT22;39709;53.334;6.534;2023-09-19T05:12:21;12.10;99.90
53802;DHT22;39709;53.334;6.534;2023-09-19T05:14:46;12.10;99.90
53802;DHT22;39709;53.334;6.534;2023-09-19T05:17:13;12.10;99.90
53802;DHT22;39709;53.334;6.534;2023-09-19T05:19:38;12.10;99.90
53802;DHT22;39709;53.334;6.534;2023-09-19T05:22:04;12.20;99.90
53802;DHT22;39709;53.334;6.534;2023-09-19T05:24:30;12.30;99.90
53802;DHT22;39709;53.334;6.534;2023-09-19T05:26:56;12.30;99.90
53802;DHT22;39709;53.334;6.534;2023-09-19T05:29:22;12.30;99.90
53802;DHT22;39709;53.334;6.534;2023-09-19T05:31:47;12.40;99.90
53802;DHT22;39709;53.334;6.534;2023-09-19T05:34:15;12.40;99.90
53802;DHT22;39709;53.334;6.534;2023-09-19T05:36:40;12.40;99.90
53802;DHT22;39709;53.334;6.534;2023-09-19T05:39:07;12.40;99.90
53802;DHT22;39709;53.334;6.534;2023-09-19T05:41:35;12.50;99.90
53802;DHT22;39709;53.334;6.534;2023-09-19T05:44:05;12.60;99.90
53802;DHT22;39709;53.334;6.534;2023-09-19T05:46:32;12.60;99.90
53802;DHT22;39709;53.334;6.534;2023-09-19T05:48:57;12.60;99.90
53802;DHT22;39709;53.334;6.534;2023-09-19T05:51:23;12.70;99.90
53802;DHT22;39709;53.334;6.534;2023-09-19T05:53:49;12.70;99.90
53802;DHT22;39709;53.334;6.534;2023-09-19T05:56:15;12.60;99.90
53802;DHT22;39709;53.334;6.534;2023-09-19T05:58:42;12.60;99.90
53802;DHT22;39709;53.334;6.534;2023-09-19T06:01:09;12.60;99.90
53802;DHT22;39709;53.334;6.534;2023-09-19T06:03:35;12.60;99.90
53802;DHT22;39709;53.334;6.534;2023-09-19T06:06:03;12.70;99.90
53802;DHT22;39709;53.334;6.534;2023-09-19T06:08:32;12.70;99.90
53802;DHT22;39709;53.334;6.534;2023-09-19T06:10:59;12.80;99.90
53802;DHT22;39709;53.334;6.534;2023-09-19T06:13:24;12.80;99.90
53802;DHT22;39709;53.334;6.534;2023-09-19T06:15:52;12.80;99.90
53802;DHT22;39709;53.334;6.534;2023-09-19T06:18:17;12.80;99.90
53802;DHT22;39709;53.334;6.534;2023-09-19T06:20:48;12.90;99.90
53802;DHT22;39709;53.334;6.534;2023-09-19T06:23:14;12.90;99.90
53802;DHT22;39709;53.334;6.534;2023-09-19T06:25:40;12.90;99.90
53802;DHT22;39709;53.334;6.534;2023-09-19T06:28:06;12.90;99.90
53802;DHT22;39709;53.334;6.534;2023-09-19T06:30:33;12.90;99.90
53802;DHT22;39709;53.334;6.534;2023-09-19T06:33:00;12.90;99.90
53802;DHT22;39709;53.334;6.534;2023-09-19T06:35:26;13.00;99.90
53802;DHT22;39709;53.334;6.534;2023-09-19T06:37:52;13.00;99.90
53802;DHT22;39709;53.334;6.534;2023-09-19T06:40:18;13.10;99.90
53802;DHT22;39709;53.334;6.534;2023-09-19T06:42:49;13.00;99.90
53802;DHT22;39709;53.334;6.534;2023-09-19T06:45:16;13.00;99.90
53802;DHT22;39709;53.334;6.534;2023-09-19T06:47:44;13.10;99.90
53802;DHT22;39709;53.334;6.534;2023-09-19T06:50:11;13.10;99.90
53802;DHT22;39709;53.334;6.534;2023-09-19T06:52:42;13.10;99.90
53802;DHT22;39709;53.334;6.534;2023-09-19T06:55:08;13.20;99.90
53802;DHT22;39709;53.334;6.534;2023-09-19T06:57:39;13.20;99.90
53802;DHT22;39709;53.334;6.534;2023-09-19T07:00:06;13.20;99.90
53802;DHT22;39709;53.334;6.534;2023-09-19T07:02:39;13.30;99.90
53802;DHT22;39709;53.334;6.534;2023-09-19T07:05:06;13.40;99.90
53802;DHT22;39709;53.334;6.534;2023-09-19T07:07:32;13.40;99.90
53802;DHT22;39709;53.334;6.534;2023-09-19T07:10:02;13.40;99.90
53802;DHT22;39709;53.334;6.534;2023-09-19T07:12:28;13.50;99.90
53802;DHT22;39709;53.334;6.534;2023-09-19T07:14:53;13.60;99.90
53802;DHT22;39709;53.334;6.534;2023-09-19T07:17:20;13.60;99.90
53802;DHT22;39709;53.334;6.534;2023-09-19T07:19:46;13.70;99.90
53802;DHT22;39709;53.334;6.534;2023-09-19T07:22:13;13.70;99.90
53802;DHT22;39709;53.334;6.534;2023-09-19T07:24:39;13.70;99.90
53802;DHT22;39709;53.334;6.534;2023-09-19T07:27:04;13.80;99.90
53802;DHT22;39709;53.334;6.534;2023-09-19T07:29:30;13.90;99.90
53802;DHT22;39709;53.334;6.534;2023-09-19T07:31:56;13.90;99.90
53802;DHT22;39709;53.334;6.534;2023-09-19T07:34:21;13.90;99.90
53802;DHT22;39709;53.334;6.534;2023-09-19T07:36:48;14.00;99.90
53802;DHT22;39709;53.334;6.534;2023-09-19T07:39:14;14.20;99.90
53802;DHT22;39709;53.334;6.534;2023-09-19T07:41:39;14.10;99.90
53802;DHT22;39709;53.334;6.534;2023-09-19T07:44:05;14.20;99.90
53802;DHT22;39709;53.334;6.534;2023-09-19T07:46:30;14.20;99.90
53802;DHT22;39709;53.334;6.534;2023-09-19T07:48:57;14.30;99.90
53802;DHT22;39709;53.334;6.534;2023-09-19T07:51:22;14.40;99.90
53802;DHT22;39709;53.334;6.534;2023-09-19T07:53:48;14.50;99.90
53802;DHT22;39709;53.334;6.534;2023-09-19T07:56:14;14.50;99.90
53802;DHT22;39709;53.334;6.534;2023-09-19T07:58:40;14.60;99.90
53802;DHT22;39709;53.334;6.534;2023-09-19T08:01:09;14.60;99.90
53802;DHT22;39709;53.334;6.534;2023-09-19T08:03:36;14.70;99.90
53802;DHT22;39709;53.334;6.534;2023-09-19T08:06:06;14.70;99.90
53802;DHT22;39709;53.334;6.534;2023-09-19T08:08:32;14.80;99.90
53802;DHT22;39709;53.334;6.534;2023-09-19T08:10:58;14.90;99.90
53802;DHT22;39709;53.334;6.534;2023-09-19T08:13:24;14.90;99.90
53802;DHT22;39709;53.334;6.534;2023-09-19T08:15:49;15.00;99.90
53802;DHT22;39709;53.334;6.534;2023-09-19T08:18:16;15.10;99.90
53802;DHT22;39709;53.334;6.534;2023-09-19T08:20:42;15.10;99.90
53802;DHT22;39709;53.334;6.534;2023-09-19T08:23:08;15.20;99.90
53802;DHT22;39709;53.334;6.534;2023-09-19T08:25:34;15.10;99.90
53802;DHT22;39709;53.334;6.534;2023-09-19T08:27:59;15.10;99.90
53802;DHT22;39709;53.334;6.534;2023-09-19T08:30:28;15.20;99.90
53802;DHT22;39709;53.334;6.534;2023-09-19T08:33:01;15.30;99.90
53802;DHT22;39709;53.334;6.534;2023-09-19T08:35:29;15.20;99.90
53802;DHT22;39709;53.334;6.534;2023-09-19T08:37:55;15.40;99.90
53802;DHT22;39709;53.334;6.534;2023-09-19T08:40:22;15.40;99.90
53802;DHT22;39709;53.334;6.534;2023-09-19T08:42:51;15.50;99.90
53802;DHT22;39709;53.334;6.534;2023-09-19T08:45:17;15.60;99.90
53802;DHT22;39709;53.334;6.534;2023-09-19T08:48:25;15.60;99.90
53802;DHT22;39709;53.334;6.534;2023-09-19T08:50:31;15.60;99.90
53802;DHT22;39709;53.334;6.534;2023-09-19T08:53:01;15.70;99.90
53802;DHT22;39709;53.334;6.534;2023-09-19T08:55:27;15.70;99.90
53802;DHT22;39709;53.334;6.534;2023-09-19T08:57:55;15.60;99.90
53802;DHT22;39709;53.334;6.534;2023-09-19T09:00:24;15.60;99.90
53802;DHT22;39709;53.334;6.534;2023-09-19T09:02:53;15.80;99.90
53802;DHT22;39709;53.334;6.534;2023-09-19T09:05:19;15.80;99.90
53802;DHT22;39709;53.334;6.534;2023-09-19T09:07:48;15.80;99.90
53802;DHT22;39709;53.334;6.534;2023-09-19T09:10:17;15.90;99.90
53802;DHT22;39709;53.334;6.534;2023-09-19T09:12:43;15.90;99.90
53802;DHT22;39709;53.334;6.534;2023-09-19T09:15:09;16.00;99.90
53802;DHT22;39709;53.334;6.534;2023-09-19T09:17:37;16.10;99.90
53802;DHT22;39709;53.334;6.534;2023-09-19T09:20:03;16.20;99.90
53802;DHT22;39709;53.334;6.534;2023-09-19T09:22:30;16.20;99.90
53802;DHT22;39709;53.334;6.534;2023-09-19T09:24:57;16.30;99.90
53802;DHT22;39709;53.334;6.534;2023-09-19T09:27:23;16.40;99.90
53802;DHT22;39709;53.334;6.534;2023-09-19T09:29:50;16.40;99.90
53802;DHT22;39709;53.334;6.534;2023-09-19T09:34:49;16.50;99.90
53802;DHT22;39709;53.334;6.534;2023-09-19T09:37:15;16.50;99.90
53802;DHT22;39709;53.334;6.534;2023-09-19T09:39:48;16.70;99.90
53802;DHT22;39709;53.334;6.534;2023-09-19T09:42:29;16.70;99.90
53802;DHT22;39709;53.334;6.534;2023-09-19T09:45:14;16.70;99.90
53802;DHT22;39709;53.334;6.534;2023-09-19T09:47:46;16.80;99.90
53802;DHT22;39709;53.334;6.534;2023-09-19T09:53:03;16.80;99.90
53802;DHT22;39709;53.334;6.534;2023-09-19T09:58:16;16.70;99.90
53802;DHT22;39709;53.334;6.534;2023-09-19T10:00:53;16.80;99.90
53802;DHT22;39709;53.334;6.534;2023-09-19T10:03:30;16.90;99.90
53802;DHT22;39709;53.334;6.534;2023-09-19T10:05:57;17.10;99.90
53802;DHT22;39709;53.334;6.534;2023-09-19T10:08:23;17.10;99.90
53802;DHT22;39709;53.334;6.534;2023-09-19T10:10:51;17.20;99.90
53802;DHT22;39709;53.334;6.534;2023-09-19T10:13:17;17.20;99.90
53802;DHT22;39709;53.334;6.534;2023-09-19T10:15:48;17.30;99.90
53802;DHT22;39709;53.334;6.534;2023-09-19T10:18:22;17.30;99.90
53802;DHT22;39709;53.334;6.534;2023-09-19T10:20:48;17.30;99.90
53802;DHT22;39709;53.334;6.534;2023-09-19T10:23:16;17.30;99.90
53802;DHT22;39709;53.334;6.534;2023-09-19T10:25:48;17.30;99.90
53802;DHT22;39709;53.334;6.534;2023-09-19T10:28:15;17.40;99.90
53802;DHT22;39709;53.334;6.534;2023-09-19T10:30:41;17.50;99.90
53802;DHT22;39709;53.334;6.534;2023-09-19T10:33:12;17.50;99.90
53802;DHT22;39709;53.334;6.534;2023-09-19T10:35:39;17.50;99.90
53802;DHT22;39709;53.334;6.534;2023-09-19T10:38:06;17.50;99.90
53802;DHT22;39709;53.334;6.534;2023-09-19T10:40:32;17.50;99.90
53802;DHT22;39709;53.334;6.534;2023-09-19T10:43:02;17.50;99.90
53802;DHT22;39709;53.334;6.534;2023-09-19T10:45:34;17.60;99.90
53802;DHT22;39709;53.334;6.534;2023-09-19T10:48:00;17.80;99.90
53802;DHT22;39709;53.334;6.534;2023-09-19T10:50:30;17.90;99.90
53802;DHT22;39709;53.334;6.534;2023-09-19T10:52:59;18.00;99.90
53802;DHT22;39709;53.334;6.534;2023-09-19T10:55:30;18.00;99.90
53802;DHT22;39709;53.334;6.534;2023-09-19T10:57:56;18.10;99.90
53802;DHT22;39709;53.334;6.534;2023-09-19T11:00:23;18.00;99.90
53802;DHT22;39709;53.334;6.534;2023-09-19T11:06:03;18.10;99.90
53802;DHT22;39709;53.334;6.534;2023-09-19T11:08:54;18.10;99.90
53802;DHT22;39709;53.334;6.534;2023-09-19T11:22:17;18.00;99.90
53802;DHT22;39709;53.334;6.534;2023-09-19T11:24:43;17.90;99.90
53802;DHT22;39709;53.334;6.534;2023-09-19T11:27:11;17.80;99.90
53802;DHT22;39709;53.334;6.534;2023-09-19T11:29:39;17.80;99.90
53802;DHT22;39709;53.334;6.534;2023-09-19T11:32:05;17.70;99.90
53802;DHT22;39709;53.334;6.534;2023-09-19T11:34:41;17.80;99.90
53802;DHT22;39709;53.334;6.534;2023-09-19T11:39:37;17.90;99.90
53802;DHT22;39709;53.334;6.534;2023-09-19T11:44:49;17.80;99.90
53802;DHT22;39709;53.334;6.534;2023-09-19T11:47:17;17.70;99.90
53802;DHT22;39709;53.334;6.534;2023-09-19T11:49:44;17.90;99.90
53802;DHT22;39709;53.334;6.534;2023-09-19T11:52:10;17.90;99.90
53802;DHT22;39709;53.334;6.534;2023-09-19T11:54:37;17.90;99.90
53802;DHT22;39709;53.334;6.534;2023-09-19T11:57:05;18.00;99.90
53802;DHT22;39709;53.334;6.534;2023-09-19T11:59:31;18.20;99.90
53802;DHT22;39709;53.334;6.534;2023-09-19T12:02:00;18.20;99.90
53802;DHT22;39709;53.334;6.534;2023-09-19T12:04:36;18.20;99.90
53802;DHT22;39709;53.334;6.534;2023-09-19T12:07:07;18.20;99.90
53802;DHT22;39709;53.334;6.534;2023-09-19T12:09:39;18.10;99.90
53802;DHT22;39709;53.334;6.534;2023-09-19T12:12:06;18.10;99.90
53802;DHT22;39709;53.334;6.534;2023-09-19T12:14:32;18.10;99.90
53802;DHT22;39709;53.334;6.534;2023-09-19T12:16:59;18.10;99.90
53802;DHT22;39709;53.334;6.534;2023-09-19T12:19:26;17.90;99.90
53802;DHT22;39709;53.334;6.534;2023-09-19T12:24:23;18.00;99.90
53802;DHT22;39709;53.334;6.534;2023-09-19T12:26:51;17.90;99.90
53802;DHT22;39709;53.334;6.534;2023-09-19T12:29:18;17.80;99.90
53802;DHT22;39709;53.334;6.534;2023-09-19T12:31:51;17.80;99.90
53802;DHT22;39709;53.334;6.534;2023-09-19T12:34:19;17.80;99.90
53802;DHT22;39709;53.334;6.534;2023-09-19T12:36:45;17.60;99.90
53802;DHT22;39709;53.334;6.534;2023-09-19T12:39:11;17.30;99.90
53802;DHT22;39709;53.334;6.534;2023-09-19T12:41:37;17.10;99.90
53802;DHT22;39709;53.334;6.534;2023-09-19T12:44:03;17.00;99.90
53802;DHT22;39709;53.334;6.534;2023-09-19T12:46:34;17.00;99.90
53802;DHT22;39709;53.334;6.534;2023-09-19T12:49:19;17.10;99.90
53802;DHT22;39709;53.334;6.534;2023-09-19T12:51:46;17.10;99.90
53802;DHT22;39709;53.334;6.534;2023-09-19T12:54:12;17.20;99.90
53802;DHT22;39709;53.334;6.534;2023-09-19T12:56:41;17.30;99.90
53802;DHT22;39709;53.334;6.534;2023-09-19T12:59:16;17.50;99.90
53802;DHT22;39709;53.334;6.534;2023-09-19T13:01:42;17.70;99.90
53802;DHT22;39709;53.334;6.534;2023-09-19T13:04:13;18.00;99.90
53802;DHT22;39709;53.334;6.534;2023-09-19T13:06:40;17.70;99.90
53802;DHT22;39709;53.334;6.534;2023-09-19T13:09:09;17.70;99.90
53802;DHT22;39709;53.334;6.534;2023-09-19T13:11:36;17.60;99.90
53802;DHT22;39709;53.334;6.534;2023-09-19T13:20:05;17.60;99.90
53802;DHT22;39709;53.334;6.534;2023-09-19T13:24:59;17.50;99.90
53802;DHT22;39709;53.334;6.534;2023-09-19T13:27:24;17.50;99.90
53802;DHT22;39709;53.334;6.534;2023-09-19T13:29:52;17.20;99.90
53802;DHT22;39709;53.334;6.534;2023-09-19T13:32:18;17.20;99.90
53802;DHT22;39709;53.334;6.534;2023-09-19T13:34:43;17.10;99.90
53802;DHT22;39709;53.334;6.534;2023-09-19T13:37:09;17.00;99.90
53802;DHT22;39709;53.334;6.534;2023-09-19T13:39:35;17.00;99.90
53802;DHT22;39709;53.334;6.534;2023-09-19T13:42:01;17.00;99.90
53802;DHT22;39709;53.334;6.534;2023-09-19T13:44:28;17.10;99.90
53802;DHT22;39709;53.334;6.534;2023-09-19T13:46:55;17.00;99.90
53802;DHT22;39709;53.334;6.534;2023-09-19T13:49:22;17.00;99.90
53802;DHT22;39709;53.334;6.534;2023-09-19T13:51:48;16.90;99.90
53802;DHT22;39709;53.334;6.534;2023-09-19T13:54:14;17.00;99.90
53802;DHT22;39709;53.334;6.534;2023-09-19T13:56:40;17.00;99.90
53802;DHT22;39709;53.334;6.534;2023-09-19T13:59:06;17.10;99.90
53802;DHT22;39709;53.334;6.534;2023-09-19T14:01:31;17.40;99.90
53802;DHT22;39709;53.334;6.534;2023-09-19T14:03:57;17.50;99.90
53802;DHT22;39709;53.334;6.534;2023-09-19T14:06:23;17.60;99.90
53802;DHT22;39709;53.334;6.534;2023-09-19T14:08:49;17.70;99.90
53802;DHT22;39709;53.334;6.534;2023-09-19T14:11:15;17.80;99.90
53802;DHT22;39709;53.334;6.534;2023-09-19T14:13:41;17.80;99.90
53802;DHT22;39709;53.334;6.534;2023-09-19T14:16:12;17.80;99.90
53802;DHT22;39709;53.334;6.534;2023-09-19T14:18:38;18.00;99.90
53802;DHT22;39709;53.334;6.534;2023-09-19T14:21:06;18.20;99.90
53802;DHT22;39709;53.334;6.534;2023-09-19T14:23:37;18.20;99.90
53802;DHT22;39709;53.334;6.534;2023-09-19T14:26:03;18.20;99.90
53802;DHT22;39709;53.334;6.534;2023-09-19T14:28:28;18.10;99.90
53802;DHT22;39709;53.334;6.534;2023-09-19T14:30:55;18.10;99.90
53802;DHT22;39709;53.334;6.534;2023-09-19T14:33:21;18.10;99.90
53802;DHT22;39709;53.334;6.534;2023-09-19T14:35:46;18.20;99.90
53802;DHT22;39709;53.334;6.534;2023-09-19T14:38:12;18.00;99.90
53802;DHT22;39709;53.334;6.534;2023-09-19T14:40:37;17.90;99.90
53802;DHT22;39709;53.334;6.534;2023-09-19T14:43:04;17.90;99.90
53802;DHT22;39709;53.334;6.534;2023-09-19T14:45:30;17.90;99.90
53802;DHT22;39709;53.334;6.534;2023-09-19T14:47:56;17.80;99.90
53802;DHT22;39709;53.334;6.534;2023-09-19T14:50:22;18.00;99.90
53802;DHT22;39709;53.334;6.534;2023-09-19T14:52:48;18.00;99.90
53802;DHT22;39709;53.334;6.534;2023-09-19T14:55:16;17.80;99.90
53802;DHT22;39709;53.334;6.534;2023-09-19T14:57:42;17.60;99.90
53802;DHT22;39709;53.334;6.534;2023-09-19T15:00:10;17.40;99.90
53802;DHT22;39709;53.334;6.534;2023-09-19T15:02:38;17.30;99.90
53802;DHT22;39709;53.334;6.534;2023-09-19T15:05:04;17.20;99.90
53802;DHT22;39709;53.334;6.534;2023-09-19T15:07:32;17.20;99.90
53802;DHT22;39709;53.334;6.534;2023-09-19T15:09:57;17.10;99.90
53802;DHT22;39709;53.334;6.534;2023-09-19T15:12:23;17.10;99.90
53802;DHT22;39709;53.334;6.534;2023-09-19T15:14:48;17.00;99.90
53802;DHT22;39709;53.334;6.534;2023-09-19T15:17:14;16.80;99.90
53802;DHT22;39709;53.334;6.534;2023-09-19T15:19:40;16.80;99.90
53802;DHT22;39709;53.334;6.534;2023-09-19T15:22:06;17.00;99.90
53802;DHT22;39709;53.334;6.534;2023-09-19T15:24:32;16.90;99.90
53802;DHT22;39709;53.334;6.534;2023-09-19T15:26:57;16.80;99.90
53802;DHT22;39709;53.334;6.534;2023-09-19T15:29:23;16.80;99.90
53802;DHT22;39709;53.334;6.534;2023-09-19T15:31:48;16.70;99.90
53802;DHT22;39709;53.334;6.534;2023-09-19T15:34:14;16.80;99.90
53802;DHT22;39709;53.334;6.534;2023-09-19T15:36:41;16.80;99.90
53802;DHT22;39709;53.334;6.534;2023-09-19T15:39:07;16.90;99.90
53802;DHT22;39709;53.334;6.534;2023-09-19T15:41:36;16.80;99.90
53802;DHT22;39709;53.334;6.534;2023-09-19T15:44:13;16.80;99.90
53802;DHT22;39709;53.334;6.534;2023-09-19T15:46:39;16.80;99.90
53802;DHT22;39709;53.334;6.534;2023-09-19T15:49:04;16.70;99.90
53802;DHT22;39709;53.334;6.534;2023-09-19T15:51:30;16.70;99.90
53802;DHT22;39709;53.334;6.534;2023-09-19T15:53:56;16.60;99.90
53802;DHT22;39709;53.334;6.534;2023-09-19T15:56:22;16.50;99.90
53802;DHT22;39709;53.334;6.534;2023-09-19T15:58:49;16.50;99.90
53802;DHT22;39709;53.334;6.534;2023-09-19T16:01:15;16.50;99.90
53802;DHT22;39709;53.334;6.534;2023-09-19T16:03:48;16.50;99.90
53802;DHT22;39709;53.334;6.534;2023-09-19T16:06:15;16.60;99.90
53802;DHT22;39709;53.334;6.534;2023-09-19T16:08:41;16.60;99.90
53802;DHT22;39709;53.334;6.534;2023-09-19T16:11:07;16.70;99.90
53802;DHT22;39709;53.334;6.534;2023-09-19T16:13:33;16.80;99.90
53802;DHT22;39709;53.334;6.534;2023-09-19T16:15:59;16.70;99.90
53802;DHT22;39709;53.334;6.534;2023-09-19T16:18:24;16.60;99.90